Time;durP1;ratioP1;P1;durP2;ratioP2;P2;SDS_P1;SDS_P2;PMS_P1;PMS_P2;Temp;Humidity;BMP_temperature;BMP_pressure;BME280_temperature;BME280_humidity;BME280_pressure;Samples;Min_cycle;Max_cycle;Signal;HPM_P1;HPM_P2
2023/10/26 00:02:05;;;;;;;32.08;18.05;;;10.00;99.90;;;;;;5057204;28;20041;-87
2023/10/26 00:04:32;;;;;;;31.75;18.75;;;10.00;99.90;;;;;;5070195;28;20474;-88
2023/10/26 00:07:00;;;;;;;30.58;18.77;;;10.00;99.90;;;;;;5043400;28;20076;-88
2023/10/26 00:09:27;;;;;;;31.80;18.45;;;10.10;99.90;;;;;;5052276;28;20069;-88
2023/10/26 00:11:53;;;;;;;32.83;18.55;;;10.10;99.90;;;;;;5042545;28;20065;-88
2023/10/26 00:14:20;;;;;;;33.00;18.60;;;10.00;99.90;;;;;;5040459;28;20041;-87
2023/10/26 00:16:47;;;;;;;27.70;17.83;;;10.10;99.90;;;;;;5070173;28;20041;-87
2023/10/26 00:19:13;;;;;;;29.88;18.75;;;10.20;99.90;;;;;;5053335;28;20041;-87
2023/10/26 00:21:41;;;;;;;33.85;19.55;;;10.10;99.90;;;;;;5045123;28;20044;-88
2023/10/26 00:24:08;;;;;;;33.72;20.05;;;10.10;99.90;;;;;;5068378;28;20128;-87
2023/10/26 00:26:35;;;;;;;37.05;19.17;;;10.10;99.90;;;;;;5053137;28;20034;-88
2023/10/26 00:29:01;;;;;;;31.60;19.90;;;10.10;99.90;;;;;;5042045;28;20029;-87
2023/10/26 00:31:28;;;;;;;32.00;19.55;;;10.10;99.90;;;;;;5053037;28;20045;-87
2023/10/26 00:33:54;;;;;;;33.72;20.15;;;10.10;99.90;;;;;;5066172;28;20117;-87
2023/10/26 00:36:21;;;;;;;32.00;19.52;;;10.10;99.90;;;;;;5044618;28;20041;-88
2023/10/26 00:38:48;;;;;;;30.23;18.90;;;10.40;99.90;;;;;;5053425;28;20384;-87
2023/10/26 00:41:14;;;;;;;33.75;20.13;;;10.20;99.90;;;;;;5053029;28;20551;-88
2023/10/26 00:43:41;;;;;;;32.15;20.02;;;10.10;99.90;;;;;;5049331;28;20077;-88
2023/10/26 00:46:11;;;;;;;31.40;19.27;;;10.30;99.90;;;;;;5043058;28;20526;-87
2023/10/26 00:48:38;;;;;;;30.88;19.60;;;10.30;99.90;;;;;;5039109;28;20044;-87
2023/10/26 00:51:05;;;;;;;31.77;19.25;;;10.10;99.90;;;;;;5054904;28;20037;-88
2023/10/26 00:53:32;;;;;;;30.88;19.50;;;10.10;99.90;;;;;;5044726;28;20488;-88
2023/10/26 00:55:59;;;;;;;38.53;19.75;;;10.10;99.90;;;;;;5064562;28;20030;-88
2023/10/26 00:58:27;;;;;;;40.28;21.10;;;10.10;99.90;;;;;;5041617;28;20043;-88
2023/10/26 01:00:53;;;;;;;32.92;19.65;;;10.50;99.90;;;;;;5060893;28;20044;-87
2023/10/26 01:03:21;;;;;;;35.20;20.30;;;10.00;99.90;;;;;;5052348;28;20395;-87
2023/10/26 01:05:48;;;;;;;34.33;20.38;;;10.10;99.90;;;;;;5068821;28;20041;-87
2023/10/26 01:08:15;;;;;;;34.38;20.00;;;10.10;99.90;;;;;;5064920;28;20042;-87
2023/10/26 01:10:42;;;;;;;32.67;19.48;;;10.10;99.90;;;;;;5042984;28;20042;-87
2023/10/26 01:13:09;;;;;;;31.58;19.58;;;10.30;99.90;;;;;;5055356;28;20064;-87
2023/10/26 01:15:36;;;;;;;34.42;20.15;;;10.10;99.90;;;;;;5040937;28;20104;-87
2023/10/26 01:18:03;;;;;;;31.23;19.10;;;10.10;99.90;;;;;;5050221;28;20045;-87
2023/10/26 01:20:29;;;;;;;34.15;19.88;;;10.10;99.90;;;;;;5058063;28;20069;-87
2023/10/26 01:22:56;;;;;;;39.10;19.95;;;10.00;99.90;;;;;;5039180;28;20054;-87
2023/10/26 01:25:23;;;;;;;34.65;19.83;;;10.10;99.90;;;;;;5051481;28;20140;-88
2023/10/26 01:27:49;;;;;;;35.70;20.50;;;10.10;99.90;;;;;;5045232;28;20136;-87
2023/10/26 01:30:19;;;;;;;32.40;19.35;;;10.40;99.90;;;;;;5062337;28;20515;-87
2023/10/26 01:32:45;;;;;;;32.53;19.65;;;10.00;99.90;;;;;;5045514;28;20516;-87
2023/10/26 01:35:12;;;;;;;31.15;18.88;;;10.70;99.90;;;;;;5042934;28;20128;-87
2023/10/26 01:37:39;;;;;;;33.33;19.50;;;10.20;99.90;;;;;;5043476;28;20042;-87
2023/10/26 01:40:08;;;;;;;32.70;18.17;;;10.70;99.90;;;;;;5064290;28;20050;-87
2023/10/26 01:42:34;;;;;;;31.77;18.80;;;10.00;99.90;;;;;;5057137;28;20045;-87
2023/10/26 01:45:02;;;;;;;27.73;17.60;;;10.10;99.90;;;;;;5040401;28;20519;-87
2023/10/26 01:47:29;;;;;;;31.30;18.88;;;10.00;99.90;;;;;;5051458;28;20041;-87
2023/10/26 01:49:55;;;;;;;28.42;18.20;;;10.00;99.90;;;;;;5046989;28;20111;-87
2023/10/26 01:52:22;;;;;;;28.23;18.10;;;10.00;99.90;;;;;;5041148;28;20496;-87
2023/10/26 01:54:49;;;;;;;27.60;17.77;;;10.00;99.90;;;;;;5032867;28;20104;-87
2023/10/26 01:57:19;;;;;;;29.95;18.23;;;10.00;99.90;;;;;;5041375;28;20037;-87
2023/10/26 01:59:46;;;;;;;30.55;18.00;;;10.50;99.90;;;;;;5052282;28;20519;-87
2023/10/26 02:02:13;;;;;;;28.27;16.83;;;10.20;99.90;;;;;;5067540;28;20049;-87
2023/10/26 02:04:39;;;;;;;33.70;18.45;;;9.90;99.90;;;;;;5064192;28;20047;-87
2023/10/26 02:07:06;;;;;;;28.80;18.15;;;10.20;99.90;;;;;;5070302;28;20072;-87
2023/10/26 02:09:33;;;;;;;28.75;17.60;;;9.90;99.90;;;;;;5048829;28;20038;-87
2023/10/26 02:11:59;;;;;;;29.17;17.83;;;9.90;99.90;;;;;;5052914;28;20065;-87
2023/10/26 02:14:26;;;;;;;32.75;18.70;;;9.90;99.90;;;;;;5054943;28;20072;-87
2023/10/26 02:16:52;;;;;;;27.27;17.33;;;10.60;99.90;;;;;;5059688;28;20487;-87
2023/10/26 02:19:19;;;;;;;32.45;18.98;;;10.00;99.90;;;;;;5062983;28;20041;-87
2023/10/26 02:21:46;;;;;;;33.10;18.88;;;10.30;99.90;;;;;;5050872;28;20045;-87
2023/10/26 02:24:12;;;;;;;33.75;18.77;;;10.00;99.90;;;;;;5051187;28;20047;-87
2023/10/26 02:26:39;;;;;;;32.13;18.75;;;9.90;99.90;;;;;;5050978;28;20141;-86
2023/10/26 02:29:06;;;;;;;36.55;18.77;;;9.90;99.90;;;;;;5053693;28;20047;-87
2023/10/26 02:31:32;;;;;;;32.17;19.17;;;9.90;99.90;;;;;;5067447;28;20072;-87
2023/10/26 02:33:59;;;;;;;30.20;18.73;;;9.90;99.90;;;;;;5056234;28;20037;-87
2023/10/26 02:36:25;;;;;;;31.52;18.90;;;9.90;99.90;;;;;;5055696;28;20125;-87
2023/10/26 02:38:52;;;;;;;33.35;20.05;;;10.40;99.90;;;;;;5034014;28;20073;-87
2023/10/26 02:41:19;;;;;;;34.58;18.73;;;9.90;99.90;;;;;;5030762;28;20558;-86
2023/10/26 02:43:45;;;;;;;30.63;18.60;;;9.90;99.90;;;;;;5049854;28;20129;-86
2023/10/26 02:46:12;;;;;;;34.15;19.23;;;9.90;99.90;;;;;;5057871;28;20073;-87
2023/10/26 02:48:39;;;;;;;33.42;19.38;;;9.90;99.90;;;;;;5050342;28;20098;-87
2023/10/26 02:51:05;;;;;;;31.13;18.30;;;10.50;99.90;;;;;;5068280;28;20123;-87
2023/10/26 02:53:33;;;;;;;32.00;18.98;;;10.00;99.90;;;;;;5067011;28;20049;-88
2023/10/26 02:56:00;;;;;;;33.95;19.50;;;9.90;99.90;;;;;;5052071;28;20038;-87
2023/10/26 02:58:26;;;;;;;33.42;19.10;;;10.10;99.90;;;;;;5047449;28;20041;-87
2023/10/26 03:00:54;;;;;;;29.30;17.45;;;10.30;99.90;;;;;;5047360;28;20053;-87
2023/10/26 03:03:21;;;;;;;28.80;18.67;;;10.20;99.90;;;;;;5045904;28;20488;-87
2023/10/26 03:05:48;;;;;;;32.05;18.77;;;10.00;99.90;;;;;;5036157;28;20124;-87
2023/10/26 03:08:15;;;;;;;34.22;19.15;;;10.00;99.90;;;;;;5053512;28;20124;-87
2023/10/26 03:10:41;;;;;;;29.60;18.63;;;10.30;99.90;;;;;;5043249;28;20441;-87
2023/10/26 03:13:08;;;;;;;36.20;20.98;;;10.20;99.90;;;;;;5047140;28;20101;-87
2023/10/26 03:15:35;;;;;;;34.38;19.60;;;9.90;99.90;;;;;;5063535;28;20033;-87
2023/10/26 03:18:02;;;;;;;30.55;18.52;;;10.10;99.90;;;;;;5057860;28;20123;-87
2023/10/26 03:20:31;;;;;;;35.05;19.05;;;9.90;99.90;;;;;;5057838;28;20564;-87
2023/10/26 03:22:58;;;;;;;33.00;18.98;;;10.00;99.90;;;;;;5064962;28;20039;-87
2023/10/26 03:25:25;;;;;;;32.17;18.85;;;9.90;99.90;;;;;;5057416;28;20045;-87
2023/10/26 03:27:51;;;;;;;33.50;18.95;;;10.50;99.90;;;;;;5074197;28;20040;-87
2023/10/26 03:30:18;;;;;;;32.92;19.42;;;9.90;99.90;;;;;;5044764;28;20029;-87
2023/10/26 03:32:44;;;;;;;30.40;18.48;;;10.40;99.90;;;;;;5057571;28;20120;-87
2023/10/26 03:35:11;;;;;;;32.05;19.00;;;10.00;99.90;;;;;;5056417;28;20037;-86
2023/10/26 03:37:38;;;;;;;34.80;19.15;;;10.00;99.90;;;;;;5037758;28;20041;-87
2023/10/26 03:40:07;;;;;;;31.45;19.75;;;10.00;99.90;;;;;;5049663;28;20045;-88
2023/10/26 03:42:33;;;;;;;39.22;19.48;;;10.00;99.90;;;;;;5054128;28;20048;-87
2023/10/26 03:45:00;;;;;;;33.80;19.40;;;10.20;99.90;;;;;;5054247;28;20044;-87
2023/10/26 03:47:27;;;;;;;30.55;18.60;;;10.00;99.90;;;;;;5057327;28;20490;-87
2023/10/26 03:49:54;;;;;;;33.35;18.85;;;10.00;99.90;;;;;;5053762;28;20065;-87
2023/10/26 03:52:23;;;;;;;30.98;18.27;;;10.00;99.90;;;;;;5047658;28;20041;-87
2023/10/26 03:54:50;;;;;;;32.80;18.52;;;10.00;99.90;;;;;;5059487;28;20040;-87
2023/10/26 03:57:17;;;;;;;31.90;17.90;;;10.00;99.90;;;;;;5045862;28;20045;-87
2023/10/26 03:59:44;;;;;;;33.38;19.35;;;10.50;99.90;;;;;;5038385;28;20053;-87
2023/10/26 04:02:11;;;;;;;32.15;18.90;;;10.00;99.90;;;;;;5053607;28;20052;-87
2023/10/26 04:04:38;;;;;;;37.97;19.40;;;10.00;99.90;;;;;;5068858;28;20048;-88
2023/10/26 04:07:05;;;;;;;27.90;18.25;;;9.90;99.90;;;;;;5060398;28;20070;-87
2023/10/26 04:09:31;;;;;;;31.95;18.50;;;9.90;99.90;;;;;;5039965;28;20045;-87
2023/10/26 04:11:58;;;;;;;30.15;18.92;;;9.90;99.90;;;;;;5055423;28;20083;-87
2023/10/26 04:14:26;;;;;;;30.60;17.38;;;10.20;99.90;;;;;;5053754;28;20041;-87
2023/10/26 04:16:52;;;;;;;31.40;18.13;;;9.90;99.90;;;;;;5054502;28;20511;-87
2023/10/26 04:19:19;;;;;;;31.85;18.13;;;9.90;99.90;;;;;;5054746;28;20041;-87
2023/10/26 04:21:46;;;;;;;28.73;17.80;;;9.90;99.90;;;;;;5042794;28;20073;-87
2023/10/26 04:24:12;;;;;;;29.83;17.95;;;9.80;99.90;;;;;;5069037;28;20041;-87
2023/10/26 04:26:39;;;;;;;30.33;17.70;;;9.80;99.90;;;;;;5053218;28;20125;-87
2023/10/26 04:29:05;;;;;;;30.45;16.42;;;9.90;99.90;;;;;;5042788;28;20514;-87
2023/10/26 04:31:33;;;;;;;32.60;18.58;;;9.90;99.90;;;;;;5058516;28;20487;-88
2023/10/26 04:34:00;;;;;;;31.40;18.50;;;9.80;99.90;;;;;;5053640;28;20033;-88
2023/10/26 04:36:26;;;;;;;33.13;18.67;;;9.90;99.90;;;;;;5041336;28;20053;-87
2023/10/26 04:38:53;;;;;;;27.25;17.20;;;10.00;99.90;;;;;;5069202;28;20519;-87
2023/10/26 04:41:20;;;;;;;34.33;18.25;;;9.80;99.90;;;;;;5040544;28;20045;-87
2023/10/26 04:43:46;;;;;;;31.30;18.55;;;9.80;99.90;;;;;;5036518;28;20522;-88
2023/10/26 04:46:13;;;;;;;38.85;18.40;;;9.80;99.90;;;;;;5046501;28;20069;-88
2023/10/26 04:48:39;;;;;;;31.45;18.67;;;10.10;99.90;;;;;;5040439;28;20063;-88
2023/10/26 04:51:08;;;;;;;29.45;18.65;;;9.80;99.90;;;;;;5056206;28;20140;-88
2023/10/26 04:53:35;;;;;;;30.52;18.50;;;9.90;99.90;;;;;;5068530;28;20042;-87
2023/10/26 04:56:02;;;;;;;30.02;18.33;;;9.90;99.90;;;;;;5052945;28;20065;-87
2023/10/26 04:58:29;;;;;;;30.95;18.17;;;9.90;99.90;;;;;;5044128;28;20042;-87
2023/10/26 05:00:56;;;;;;;31.05;18.30;;;9.90;99.90;;;;;;5040575;28;20047;-87
2023/10/26 05:03:25;;;;;;;30.17;18.17;;;9.90;99.90;;;;;;5059656;28;20038;-87
2023/10/26 05:05:58;;;;;;;29.38;17.98;;;9.90;99.90;;;;;;5066223;28;20044;-87
2023/10/26 05:08:25;;;;;;;33.90;18.50;;;9.80;99.90;;;;;;5049285;28;20510;-87
2023/10/26 05:10:51;;;;;;;33.88;19.25;;;9.90;99.90;;;;;;5052586;28;20132;-88
2023/10/26 05:13:18;;;;;;;29.65;18.40;;;9.90;99.90;;;;;;5047372;28;20041;-87
2023/10/26 05:15:45;;;;;;;33.53;19.63;;;10.00;99.90;;;;;;5048756;28;20492;-87
2023/10/26 05:18:14;;;;;;;32.15;19.15;;;9.90;99.90;;;;;;5053350;28;20042;-87
2023/10/26 05:20:47;;;;;;;37.35;19.48;;;9.90;99.90;;;;;;5046242;28;20041;-87
2023/10/26 05:23:14;;;;;;;36.08;19.70;;;10.20;99.90;;;;;;5042273;28;20040;-87
2023/10/26 05:25:41;;;;;;;34.13;19.85;;;9.80;99.90;;;;;;5055012;28;20445;-87
2023/10/26 05:28:07;;;;;;;35.40;19.58;;;9.80;99.90;;;;;;5047194;28;20566;-87
2023/10/26 05:30:34;;;;;;;40.67;20.67;;;9.90;99.90;;;;;;5040750;28;20033;-87
2023/10/26 05:33:00;;;;;;;34.70;20.48;;;10.50;99.90;;;;;;5058668;28;20048;-88
2023/10/26 05:35:27;;;;;;;36.70;20.45;;;9.80;99.90;;;;;;5047665;28;20069;-87
2023/10/26 05:37:57;;;;;;;36.42;19.60;;;10.40;99.90;;;;;;5041453;28;20094;-88
2023/10/26 05:40:26;;;;;;;35.97;19.70;;;10.30;99.90;;;;;;5037568;28;20049;-88
2023/10/26 05:42:53;;;;;;;43.35;20.80;;;9.70;99.90;;;;;;5042721;28;20084;-87
2023/10/26 05:45:19;;;;;;;35.35;19.13;;;10.20;99.90;;;;;;5048363;28;20045;-88
2023/10/26 05:48:00;;;;;;;36.90;20.10;;;9.70;99.90;;;;;;5038474;28;20535;-88
2023/10/26 05:50:26;;;;;;;31.90;19.05;;;9.70;99.90;;;;;;5033555;28;20081;-87
2023/10/26 05:52:53;;;;;;;34.13;18.92;;;10.00;99.90;;;;;;5042449;28;20041;-87
2023/10/26 05:55:21;;;;;;;31.23;18.00;;;;;;;;;;5058663;28;20053;-87
2023/10/26 05:57:47;;;;;;;31.50;19.40;;;9.60;99.90;;;;;;5044153;28;21833;-87
2023/10/26 06:00:15;;;;;;;37.88;19.58;;;10.10;99.90;;;;;;5050892;28;20064;-87
2023/10/26 06:02:42;;;;;;;32.10;18.25;;;9.60;99.90;;;;;;5065322;28;20049;-87
2023/10/26 06:05:08;;;;;;;32.28;18.40;;;9.50;99.90;;;;;;5059982;28;20568;-87
2023/10/26 06:07:35;;;;;;;31.73;17.15;;;9.70;99.90;;;;;;5067394;28;20042;-87
2023/10/26 06:10:03;;;;;;;34.55;18.60;;;9.50;99.90;;;;;;5050970;28;20069;-87
2023/10/26 06:12:29;;;;;;;36.55;18.60;;;9.40;99.90;;;;;;5068352;28;20471;-87
2023/10/26 06:14:56;;;;;;;33.47;17.15;;;10.10;99.90;;;;;;5048952;28;20049;-87
2023/10/26 06:17:23;;;;;;;30.38;18.67;;;9.70;99.90;;;;;;5050570;28;20392;-86
2023/10/26 06:19:50;;;;;;;31.00;17.33;;;9.40;99.90;;;;;;5042775;28;20052;-87
2023/10/26 06:22:17;;;;;;;36.78;17.60;;;9.40;99.90;;;;;;5047642;28;20491;-87
2023/10/26 06:24:44;;;;;;;28.48;17.60;;;9.40;99.90;;;;;;5049403;28;20093;-87
2023/10/26 06:27:11;;;;;;;28.35;16.73;;;9.70;99.90;;;;;;5054014;28;20037;-87
2023/10/26 06:29:37;;;;;;;29.33;17.35;;;9.70;99.90;;;;;;5041531;28;20071;-86
2023/10/26 06:32:04;;;;;;;29.63;17.13;;;9.40;99.90;;;;;;5065292;28;20040;-86
2023/10/26 06:34:31;;;;;;;36.65;17.98;;;9.30;99.90;;;;;;5066322;28;20038;-86
2023/10/26 06:36:57;;;;;;;29.75;17.42;;;9.30;99.90;;;;;;5051544;28;20033;-84
2023/10/26 06:39:24;;;;;;;32.45;18.20;;;9.30;99.90;;;;;;5047407;28;20041;-87
2023/10/26 06:41:51;;;;;;;38.60;18.33;;;9.70;99.90;;;;;;5036539;28;20061;-88
2023/10/26 06:44:17;;;;;;;30.60;16.52;;;9.40;99.90;;;;;;5048738;28;20496;-89
2023/10/26 06:46:44;;;;;;;32.13;17.85;;;9.40;99.90;;;;;;5033241;28;20049;-90
2023/10/26 06:49:12;;;;;;;32.88;17.27;;;9.50;99.90;;;;;;5050260;28;20124;-87
2023/10/26 06:51:39;;;;;;;31.85;17.83;;;9.60;99.90;;;;;;5048732;28;20075;-87
2023/10/26 06:54:06;;;;;;;31.33;17.90;;;9.50;99.90;;;;;;5046364;28;20041;-87
2023/10/26 06:56:32;;;;;;;34.38;16.73;;;9.50;99.90;;;;;;5045225;28;20108;-88
2023/10/26 06:58:59;;;;;;;37.20;17.65;;;9.50;99.90;;;;;;5037937;28;20127;-87
2023/10/26 07:01:28;;;;;;;29.42;17.02;;;10.30;99.90;;;;;;5061823;28;20092;-88
2023/10/26 07:03:55;;;;;;;33.97;17.35;;;9.60;99.90;;;;;;5052693;28;20044;-87
2023/10/26 07:06:21;;;;;;;30.50;17.30;;;9.50;99.90;;;;;;5044154;28;20041;-88
2023/10/26 07:08:49;;;;;;;35.50;17.30;;;9.60;99.90;;;;;;5055292;28;20033;-88
2023/10/26 07:11:16;;;;;;;30.48;17.45;;;9.60;99.90;;;;;;5053951;28;20115;-88
2023/10/26 07:13:45;;;;;;;30.63;17.25;;;9.50;99.90;;;;;;5045819;28;20042;-88
2023/10/26 07:16:12;;;;;;;29.55;17.25;;;9.50;99.90;;;;;;5054062;28;20124;-88
2023/10/26 07:18:39;;;;;;;33.40;18.02;;;9.50;99.90;;;;;;5070722;28;20728;-88
2023/10/26 07:21:07;;;;;;;35.15;17.60;;;9.50;99.90;;;;;;5057236;28;20037;-88
2023/10/26 07:23:35;;;;;;;33.17;17.83;;;9.60;99.90;;;;;;5055131;28;20442;-89
2023/10/26 07:26:02;;;;;;;36.70;17.45;;;9.70;99.90;;;;;;5057000;28;20865;-87
2023/10/26 07:28:29;;;;;;;35.25;18.45;;;9.50;99.90;;;;;;5042260;28;20046;-88
2023/10/26 07:30:55;;;;;;;38.80;18.27;;;9.60;99.90;;;;;;5048932;28;20049;-88
2023/10/26 07:33:23;;;;;;;31.85;18.38;;;9.60;99.90;;;;;;5034848;28;20038;-89
2023/10/26 07:35:51;;;;;;;34.65;17.92;;;9.70;99.90;;;;;;5048888;28;20091;-88
2023/10/26 07:38:18;;;;;;;33.15;17.63;;;9.70;99.90;;;;;;5051276;28;20048;-88
2023/10/26 07:40:49;;;;;;;32.03;18.15;;;10.30;99.90;;;;;;5053860;28;20501;-88
2023/10/26 07:43:16;;;;;;;32.10;17.38;;;9.90;99.90;;;;;;5055325;28;20045;-87
2023/10/26 07:45:43;;;;;;;34.53;18.00;;;9.70;99.90;;;;;;5041173;28;20097;-88
2023/10/26 07:48:10;;;;;;;32.97;17.98;;;9.70;99.90;;;;;;5058080;28;20072;-88
2023/10/26 07:50:36;;;;;;;33.85;17.73;;;10.00;99.90;;;;;;5053612;28;20498;-88
2023/10/26 07:53:03;;;;;;;32.50;18.25;;;9.90;99.90;;;;;;5072448;28;20116;-88
2023/10/26 07:55:30;;;;;;;29.15;17.08;;;9.70;99.90;;;;;;5054205;28;20033;-87
2023/10/26 07:57:57;;;;;;;30.02;16.73;;;9.70;99.90;;;;;;5055124;28;20525;-88
2023/10/26 08:00:26;;;;;;;29.63;16.65;;;9.70;99.90;;;;;;5053437;28;20160;-89
2023/10/26 08:02:53;;;;;;;27.40;15.85;;;9.70;99.90;;;;;;5065178;28;20077;-87
2023/10/26 08:05:20;;;;;;;28.45;15.52;;;10.20;99.90;;;;;;5051789;28;20048;-87
2023/10/26 08:07:47;;;;;;;29.75;16.65;;;9.70;99.90;;;;;;5046722;28;20051;-87
2023/10/26 08:10:14;;;;;;;30.20;16.48;;;10.40;99.90;;;;;;5052834;28;20091;-87
2023/10/26 08:12:40;;;;;;;33.33;15.82;;;9.80;99.90;;;;;;5040017;28;20476;-87
2023/10/26 08:15:08;;;;;;;28.48;16.05;;;10.50;99.90;;;;;;5036826;28;20037;-87
2023/10/26 08:17:35;;;;;;;30.05;16.38;;;9.70;99.90;;;;;;5045944;28;20218;-87
2023/10/26 08:20:04;;;;;;;26.92;15.13;;;9.80;99.90;;;;;;5040036;28;20780;-87
2023/10/26 08:22:33;;;;;;;28.85;15.73;;;9.80;99.90;;;;;;5053967;28;20521;-87
2023/10/26 08:25:00;;;;;;;30.25;16.45;;;9.80;99.90;;;;;;5037730;28;20041;-87
2023/10/26 08:27:27;;;;;;;28.88;16.13;;;9.90;99.90;;;;;;5044719;28;20120;-86
2023/10/26 08:29:54;;;;;;;32.38;16.48;;;9.90;99.90;;;;;;5070204;28;20041;-87
2023/10/26 08:32:20;;;;;;;31.38;17.13;;;10.50;99.90;;;;;;5047385;28;20507;-86
2023/10/26 08:34:47;;;;;;;30.50;17.13;;;10.60;99.90;;;;;;5043675;28;20058;-86
2023/10/26 08:37:14;;;;;;;29.38;16.88;;;10.20;99.90;;;;;;5053697;28;20045;-86
2023/10/26 08:39:40;;;;;;;30.90;17.67;;;10.00;99.90;;;;;;5049622;28;20045;-86
2023/10/26 08:42:08;;;;;;;33.85;17.75;;;10.00;99.90;;;;;;5050970;28;20045;-85
2023/10/26 08:44:36;;;;;;;30.75;17.90;;;10.30;99.90;;;;;;5051283;28;20081;-86
2023/10/26 08:47:03;;;;;;;30.42;18.17;;;10.00;99.90;;;;;;5048095;28;20057;-86
2023/10/26 08:49:31;;;;;;;35.10;17.83;;;10.10;99.90;;;;;;5032787;28;20038;-86
2023/10/26 08:51:59;;;;;;;34.08;18.75;;;10.10;99.90;;;;;;5039937;28;20038;-88
2023/10/26 08:54:26;;;;;;;36.13;17.83;;;10.10;99.90;;;;;;5039552;28;20033;-87
2023/10/26 08:56:54;;;;;;;31.77;17.88;;;10.10;99.90;;;;;;5052026;28;20454;-87
2023/10/26 08:59:23;;;;;;;39.15;18.90;;;10.50;99.90;;;;;;5040286;28;20507;-86
2023/10/26 09:01:49;;;;;;;31.00;17.42;;;10.50;99.90;;;;;;5048139;28;20044;-85
2023/10/26 09:04:16;;;;;;;34.35;17.85;;;10.10;99.90;;;;;;5036616;28;20042;-85
2023/10/26 09:06:48;;;;;;;30.70;17.05;;;10.20;99.90;;;;;;5049368;28;20577;-85
2023/10/26 09:09:16;;;;;;;32.38;17.80;;;10.20;99.90;;;;;;5042417;28;20073;-85
2023/10/26 09:11:48;;;;;;;29.13;17.45;;;10.20;99.90;;;;;;5039908;28;20388;-85
2023/10/26 09:14:22;;;;;;;33.75;16.80;;;10.50;99.90;;;;;;5052524;28;20094;-85
2023/10/26 09:16:49;;;;;;;32.38;18.23;;;10.20;99.90;;;;;;5045823;28;20046;-83
2023/10/26 09:19:17;;;;;;;29.85;16.85;;;10.30;99.90;;;;;;5048670;28;20041;-82
2023/10/26 09:21:57;;;;;;;28.95;17.25;;;10.20;99.90;;;;;;5066820;28;20045;-81
2023/10/26 09:24:26;;;;;;;28.52;16.73;;;10.30;99.90;;;;;;5041096;28;20048;-83
2023/10/26 09:26:54;;;;;;;31.15;16.75;;;10.30;99.90;;;;;;5070438;28;20059;-83
2023/10/26 09:29:34;;;;;;;30.88;17.27;;;10.30;99.90;;;;;;5041126;28;20078;-83
2023/10/26 09:32:00;;;;;;;33.25;17.23;;;10.20;99.90;;;;;;5048687;28;20037;-83
2023/10/26 09:34:27;;;;;;;34.08;17.50;;;10.20;99.90;;;;;;5047693;28;20049;-83
2023/10/26 09:37:02;;;;;;;34.25;18.42;;;10.20;99.90;;;;;;5050857;28;20064;-82
2023/10/26 09:39:33;;;;;;;33.60;18.63;;;10.30;99.90;;;;;;5049846;28;20076;-83
2023/10/26 09:42:01;;;;;;;29.90;17.27;;;10.30;99.90;;;;;;5052060;28;20063;-83
2023/10/26 09:44:29;;;;;;;29.77;17.00;;;10.30;99.90;;;;;;5039940;28;20411;-83
2023/10/26 09:46:57;;;;;;;33.22;17.15;;;10.30;99.90;;;;;;5044734;28;20046;-86
2023/10/26 09:49:26;;;;;;;28.95;16.45;;;10.30;99.90;;;;;;5030100;28;20069;-85
2023/10/26 09:51:53;;;;;;;28.50;16.40;;;10.30;99.90;;;;;;5035804;28;20038;-85
2023/10/26 09:54:32;;;;;;;28.10;16.85;;;10.90;99.90;;;;;;5038086;28;20088;-85
2023/10/26 09:57:17;;;;;;;27.08;16.70;;;10.40;99.90;;;;;;5048153;28;20045;-85
2023/10/26 09:59:44;;;;;;;29.45;16.02;;;10.30;99.90;;;;;;5042910;28;20069;-86
2023/10/26 10:02:15;;;;;;;28.77;15.93;;;10.40;99.90;;;;;;5030293;28;20045;-86
2023/10/26 10:04:43;;;;;;;32.20;17.92;;;10.40;99.90;;;;;;5042948;28;20111;-85
2023/10/26 10:07:16;;;;;;;29.55;16.90;;;10.40;99.90;;;;;;5045030;28;20487;-83
2023/10/26 10:10:18;;;;;;;30.42;16.42;;;10.40;99.90;;;;;;5065363;28;20045;-86
2023/10/26 10:12:52;;;;;;;28.17;16.13;;;10.50;99.90;;;;;;5028607;28;20044;-85
2023/10/26 10:15:36;;;;;;;27.65;15.50;;;10.40;99.90;;;;;;5012417;28;20056;-85
2023/10/26 10:18:04;;;;;;;29.77;16.70;;;10.50;99.90;;;;;;5011948;28;20546;-84
2023/10/26 10:20:36;;;;;;;28.77;17.25;;;10.50;99.90;;;;;;5045094;28;20105;-84
2023/10/26 10:23:04;;;;;;;30.90;17.25;;;10.50;99.90;;;;;;4992821;28;20046;-85
2023/10/26 10:25:49;;;;;;;34.58;15.98;;;10.50;99.90;;;;;;5023398;28;20050;-85
2023/10/26 10:28:17;;;;;;;29.70;16.10;;;11.00;99.90;;;;;;5028478;28;20148;-84
2023/10/26 10:30:50;;;;;;;29.98;15.30;;;10.60;99.90;;;;;;5012926;28;20466;-84
2023/10/26 10:33:25;;;;;;;27.70;15.88;;;10.40;99.90;;;;;;5012320;28;20054;-84
2023/10/26 10:36:02;;;;;;;25.93;15.80;;;10.50;99.90;;;;;;5012275;28;20400;-84
2023/10/26 10:38:30;;;;;;;26.90;15.80;;;10.50;99.90;;;;;;4997051;28;20562;-84
2023/10/26 10:41:02;;;;;;;30.02;16.67;;;10.70;99.90;;;;;;5011562;28;20060;-84
2023/10/26 10:43:33;;;;;;;29.85;16.65;;;10.50;99.90;;;;;;5025338;28;20483;-85
2023/10/26 10:46:25;;;;;;;31.50;16.92;;;10.50;99.90;;;;;;5035593;28;20098;-84
2023/10/26 10:49:06;;;;;;;27.98;15.32;;;10.50;99.90;;;;;;5034647;28;20499;-84
2023/10/26 10:51:42;;;;;;;28.52;17.02;;;10.60;99.90;;;;;;5055279;28;20045;-84
2023/10/26 10:54:13;;;;;;;32.78;17.60;;;10.60;99.90;;;;;;5059242;28;20495;-84
2023/10/26 10:56:42;;;;;;;30.67;17.63;;;10.60;99.90;;;;;;5042548;28;20034;-85
2023/10/26 10:59:29;;;;;;;29.48;17.73;;;10.60;99.90;;;;;;5043420;28;20052;-83
2023/10/26 11:02:25;;;;;;;29.90;17.13;;;10.50;99.90;;;;;;5035822;28;20052;-85
2023/10/26 11:04:56;;;;;;;33.00;18.17;;;10.70;99.90;;;;;;5030713;28;20034;-85
2023/10/26 11:07:25;;;;;;;32.65;18.15;;;10.60;99.90;;;;;;5042471;28;20402;-84
2023/10/26 11:10:00;;;;;;;31.17;17.85;;;10.60;99.90;;;;;;5044028;28;20403;-85
2023/10/26 11:12:26;;;;;;;32.80;17.60;;;10.70;99.90;;;;;;5049008;28;20037;-85
2023/10/26 11:14:54;;;;;;;30.92;18.25;;;10.60;99.90;;;;;;5043289;28;20042;-84
2023/10/26 11:17:25;;;;;;;31.15;18.65;;;11.20;99.90;;;;;;5047543;28;20053;-88
2023/10/26 11:19:53;;;;;;;29.67;17.30;;;10.70;99.90;;;;;;5046359;28;20048;-80
2023/10/26 11:22:21;;;;;;;29.23;17.65;;;10.70;99.90;;;;;;5044902;28;20064;-83
2023/10/26 11:24:48;;;;;;;31.15;17.60;;;10.80;99.90;;;;;;5015901;28;20053;-84
2023/10/26 11:27:17;;;;;;;32.85;18.88;;;10.70;99.90;;;;;;5056710;28;20044;-88
2023/10/26 11:29:59;;;;;;;28.80;16.75;;;11.10;99.90;;;;;;5030086;28;20416;-87
2023/10/26 11:32:28;;;;;;;33.45;18.23;;;10.70;99.90;;;;;;5061673;28;20045;-84
2023/10/26 11:35:06;;;;;;;32.70;18.02;;;10.90;99.90;;;;;;5052956;28;20032;-85
2023/10/26 11:37:37;;;;;;;31.55;17.60;;;10.90;99.90;;;;;;5055748;28;20052;-85
2023/10/26 11:40:07;;;;;;;31.30;17.98;;;10.90;99.90;;;;;;5055909;28;20045;-85
2023/10/26 11:42:53;;;;;;;30.40;17.67;;;11.00;99.90;;;;;;5053577;28;20041;-86
2023/10/26 11:45:21;;;;;;;;;;;10.90;99.90;;;;;;5069930;28;20517;-85
2023/10/26 11:47:57;;;;;;;28.75;16.77;;;11.00;99.90;;;;;;5072325;28;20298;-85
2023/10/26 11:50:36;;;;;;;27.73;16.63;;;11.00;99.90;;;;;;5052442;28;20466;-85
2023/10/26 11:53:05;;;;;;;33.70;17.17;;;11.00;99.90;;;;;;5052517;28;20069;-86
2023/10/26 11:55:33;;;;;;;35.95;17.17;;;11.00;99.90;;;;;;5042343;28;20038;-86
2023/10/26 11:58:03;;;;;;;30.25;17.33;;;11.20;99.90;;;;;;5054395;28;20037;-86
2023/10/26 12:00:30;;;;;;;30.20;17.10;;;11.20;99.90;;;;;;5068909;28;20057;-86
2023/10/26 12:02:58;;;;;;;31.55;16.48;;;11.50;99.90;;;;;;5041452;28;20045;-86
2023/10/26 12:05:26;;;;;;;36.70;18.50;;;11.50;99.90;;;;;;5041494;28;20389;-86
2023/10/26 12:07:53;;;;;;;27.63;15.95;;;11.70;99.90;;;;;;5051182;28;20087;-85
2023/10/26 12:10:22;;;;;;;28.42;16.38;;;11.70;99.90;;;;;;5040223;28;20044;-86
2023/10/26 12:12:50;;;;;;;28.35;16.02;;;11.60;99.90;;;;;;5050429;28;20045;-85
2023/10/26 12:15:17;;;;;;;31.08;16.42;;;11.50;99.90;;;;;;5052734;28;20643;-85
2023/10/26 12:17:44;;;;;;;31.35;16.08;;;11.60;99.90;;;;;;5069252;28;20108;-86
2023/10/26 12:20:13;;;;;;;25.85;16.13;;;11.40;99.90;;;;;;5052442;28;20051;-86
2023/10/26 12:22:41;;;;;;;26.33;15.85;;;11.30;99.90;;;;;;5052084;28;20046;-87
2023/10/26 12:25:10;;;;;;;25.65;14.85;;;11.40;99.90;;;;;;5055633;28;20041;-87
2023/10/26 12:27:38;;;;;;;27.55;16.63;;;11.60;99.90;;;;;;5046683;28;20042;-87
2023/10/26 12:30:05;;;;;;;28.60;16.15;;;11.30;99.90;;;;;;5047676;28;20049;-87
2023/10/26 12:32:32;;;;;;;25.58;15.63;;;11.40;99.90;;;;;;5052033;28;20116;-87
2023/10/26 12:34:58;;;;;;;29.23;16.15;;;11.40;99.90;;;;;;5041419;28;20120;-86
2023/10/26 12:37:25;;;;;;;26.88;15.73;;;11.40;99.90;;;;;;5045595;28;20069;-86